Time;durP1;ratioP1;P1;durP2;ratioP2;P2;SDS_P1;SDS_P2;PMS_P1;PMS_P2;Temp;Humidity;BMP_temperature;BMP_pressure;BME280_temperature;BME280_humidity;BME280_pressure;Samples;Min_cycle;Max_cycle;Signal;HPM_P1;HPM_P2
2022/05/21 00:01:57;;;;;;;25.02;15.38;;;;;;;17.83;66.86;99953.99;1687978;84;28267;-76
2022/05/21 00:04:23;;;;;;;17.77;13.90;;;;;;;17.81;67.60;99935.81;1683083;84;25879;-78
2022/05/21 00:06:49;;;;;;;29.67;19.57;;;;;;;17.79;67.82;99924.41;1673553;84;25378;-76
2022/05/21 00:09:18;;;;;;;24.63;16.67;;;;;;;17.77;68.09;99925.99;1677007;84;25982;-78
2022/05/21 00:11:45;;;;;;;18.92;14.73;;;;;;;17.69;67.87;99929.13;1677375;84;25965;-77
2022/05/21 00:14:12;;;;;;;26.65;16.17;;;;;;;17.58;67.89;99925.46;1676356;84;27484;-78
2022/05/21 00:16:38;;;;;;;24.85;16.82;;;;;;;17.52;68.36;99927.81;1664276;84;25317;-79
2022/05/21 00:19:04;;;;;;;23.45;16.00;;;;;;;17.47;68.78;99933.11;1676124;84;26465;-79
2022/05/21 00:21:31;;;;;;;19.75;14.50;;;;;;;17.42;69.24;99947.11;1669416;84;25807;-79
2022/05/21 00:23:57;;;;;;;19.37;14.53;;;;;;;17.37;69.71;99991.69;1673234;84;25876;-78
2022/05/21 00:26:25;;;;;;;15.00;13.35;;;;;;;17.24;70.61;100051.03;1664199;84;27638;-77
2022/05/21 00:28:51;;;;;;;16.82;12.95;;;;;;;17.03;71.54;100074.72;1673464;84;25812;-80
2022/05/21 00:31:19;;;;;;;20.70;14.03;;;;;;;16.83;72.30;100088.66;1691865;84;25839;-79
2022/05/21 00:33:47;;;;;;;18.95;13.80;;;;;;;16.72;73.74;100088.16;1681664;84;26550;-76
2022/05/21 00:36:15;;;;;;;18.65;14.83;;;;;;;16.66;74.28;100067.48;1682374;84;25322;-77
2022/05/21 00:38:42;;;;;;;21.73;14.45;;;;;;;16.60;74.89;100071.14;1666118;84;27491;-77
2022/05/21 00:41:11;;;;;;;19.37;13.72;;;;;;;16.55;76.97;100059.41;1668462;84;25968;-79
2022/05/21 00:43:54;;;;;;;17.75;13.95;;;;;;;16.48;76.41;100055.45;1686487;84;26470;-80
2022/05/21 00:46:32;;;;;;;16.07;14.25;;;;;;;16.45;76.92;100036.16;1687908;84;26565;-79
2022/05/21 00:49:15;;;;;;;21.02;14.45;;;;;;;16.44;77.02;100008.33;1690358;84;26591;-79
2022/05/21 00:51:53;;;;;;;17.25;14.80;;;;;;;16.48;77.17;99970.30;1691936;84;27600;-79
2022/05/21 00:54:23;;;;;;;23.32;16.67;;;;;;;16.51;77.23;99934.68;1691681;84;26547;-78
2022/05/21 00:57:11;;;;;;;;;;;;;;;16.51;77.56;99913.05;1687224;84;25969;-78
2022/05/21 00:59:51;;;;;;;20.37;16.25;;;;;;;16.47;78.01;99894.81;1702268;83;25952;-79
2022/05/21 01:02:37;;;;;;;20.43;15.80;;;;;;;16.43;77.85;99881.50;1717284;83;26005;-81
2022/05/21 01:05:09;;;;;;;20.62;15.90;;;;;;;16.46;77.86;99852.64;1701616;83;28461;-79
2022/05/21 01:07:37;;;;;;;21.82;15.55;;;;;;;16.46;78.40;99817.50;1707297;83;26178;-79
2022/05/21 01:10:05;;;;;;;22.87;16.20;;;;;;;16.45;78.53;99841.00;1699053;83;26151;-78
2022/05/21 01:12:37;;;;;;;24.23;17.20;;;;;;;16.47;78.66;99869.14;1695302;83;26721;-78
2022/05/21 01:15:09;;;;;;;21.10;16.60;;;;;;;16.48;78.97;99889.19;1698463;83;25301;-79
2022/05/21 01:17:35;;;;;;;22.75;16.52;;;;;;;16.45;79.32;99893.72;1703892;83;27714;-79
2022/05/21 01:20:13;;;;;;;21.95;16.15;;;;;;;16.43;79.50;99890.95;1702848;83;26437;-79
2022/05/21 01:22:49;;;;;;;24.23;16.45;;;;;;;16.45;79.63;99891.53;1708137;83;26470;-78
2022/05/21 01:25:21;;;;;;;19.10;17.07;;;;;;;16.48;79.73;99877.02;1720400;83;26583;-78
2022/05/21 01:27:50;;;;;;;21.57;16.40;;;;;;;16.53;79.77;99870.92;1699261;83;26448;-78
2022/05/21 01:30:23;;;;;;;21.10;17.27;;;;;;;16.55;79.82;99861.48;1692381;83;27473;-80
2022/05/21 01:32:50;;;;;;;25.95;18.00;;;;;;;16.57;79.70;99851.80;1716781;83;26551;-78
2022/05/21 01:35:19;;;;;;;23.87;19.90;;;;;;;16.60;79.84;99823.73;1696506;83;26415;-79
2022/05/21 01:37:47;;;;;;;26.20;20.15;;;;;;;16.64;79.88;99803.24;1691901;83;26019;-79
2022/05/21 01:40:17;;;;;;;27.70;21.65;;;;;;;16.69;80.01;99798.45;1715519;83;25774;-78
2022/05/21 01:44:37;;;;;;;24.80;19.23;;;;;;;16.72;79.89;99796.63;1713094;83;28229;-78
2022/05/21 01:45:12;;;;;;;23.65;18.98;;;;;;;16.74;79.87;99781.77;1709917;83;26072;-78
2022/05/21 01:47:42;;;;;;;20.65;18.35;;;;;;;16.72;79.84;99773.08;1696675;83;25858;-79
2022/05/21 01:50:08;;;;;;;21.40;18.98;;;;;;;16.69;80.10;99760.07;1708085;83;25926;-78
2022/05/21 01:52:34;;;;;;;26.20;20.17;;;;;;;16.61;79.93;99747.50;1703011;83;26526;-79
2022/05/21 01:55:01;;;;;;;22.87;20.48;;;;;;;16.56;80.30;99744.70;1703115;83;27450;-78
2022/05/21 01:57:27;;;;;;;23.00;19.32;;;;;;;16.55;80.32;99740.38;1720299;83;25790;-78
2022/05/21 01:59:53;;;;;;;22.42;19.50;;;;;;;16.56;80.34;99739.30;1707273;83;25794;-78
2022/05/21 02:02:20;;;;;;;23.83;20.60;;;;;;;16.58;80.57;99740.69;1718642;83;26168;-80
2022/05/21 02:04:47;;;;;;;26.45;20.80;;;;;;;16.58;80.61;99731.23;1712118;83;26165;-79
2022/05/21 02:07:13;;;;;;;24.27;20.15;;;;;;;16.58;80.71;99726.34;1696662;83;27457;-79
2022/05/21 02:09:39;;;;;;;26.35;21.55;;;;;;;16.57;80.91;99727.43;1702968;83;25751;-78
2022/05/21 02:12:06;;;;;;;25.15;22.30;;;;;;;16.55;80.98;99728.20;1713842;83;25948;-79
2022/05/21 02:14:33;;;;;;;25.48;22.77;;;;;;;16.55;81.02;99726.86;1706627;83;26570;-79
2022/05/21 02:16:59;;;;;;;25.85;22.87;;;;;;;16.55;81.02;99722.80;1719960;83;26523;-77
2022/05/21 02:19:25;;;;;;;26.23;22.27;;;;;;;16.55;81.17;99719.54;1708374;83;27461;-81
2022/05/21 02:21:52;;;;;;;24.50;21.65;;;;;;;16.55;81.24;99722.80;1708683;83;25699;-79
2022/05/21 02:24:18;;;;;;;27.87;22.98;;;;;;;16.57;81.50;99730.12;1707415;83;25895;-77
2022/05/21 02:26:44;;;;;;;25.35;22.25;;;;;;;16.53;81.33;99727.08;1703182;83;25803;-79
2022/05/21 02:29:11;;;;;;;33.95;24.12;;;;;;;16.53;81.65;99722.23;1703067;83;25665;-79
2022/05/21 02:31:37;;;;;;;29.67;24.02;;;;;;;16.50;81.77;99718.13;1707855;83;27500;-79
2022/05/21 02:34:03;;;;;;;31.80;24.10;;;;;;;16.43;81.53;99713.38;1710040;83;26290;-77
2022/05/21 02:39:27;;;;;;;29.00;22.93;;;;;;;16.45;81.80;99713.13;1701689;83;25806;-80
2022/05/21 02:41:58;;;;;;;26.87;22.27;;;;;;;16.44;82.22;99716.91;1699721;83;25899;-79
2022/05/21 02:44:24;;;;;;;26.25;22.73;;;;;;;16.42;82.52;99727.16;1697634;83;27452;-79
2022/05/21 02:46:52;;;;;;;26.60;23.02;;;;;;;16.38;82.72;99720.05;1700781;83;26058;-77
2022/05/21 02:49:18;;;;;;;25.48;22.82;;;;;;;16.36;83.01;99724.88;1697988;83;25914;-79
2022/05/21 02:51:45;;;;;;;27.02;23.15;;;;;;;16.37;82.98;99725.18;1705196;83;26323;-79
2022/05/21 02:54:14;;;;;;;25.68;22.98;;;;;;;16.41;83.15;99718.22;1705059;83;25754;-79
2022/05/21 02:56:49;;;;;;;27.58;22.62;;;;;;;16.41;83.16;99720.92;1701458;83;28227;-80
2022/05/21 02:59:16;;;;;;;27.27;23.65;;;;;;;16.42;83.17;99710.94;1698585;83;25745;-78
2022/05/21 03:01:43;;;;;;;27.30;22.25;;;;;;;16.43;83.37;99714.73;1671534;84;25968;-79
2022/05/21 03:04:09;;;;;;;26.57;21.75;;;;;;;16.45;83.30;99711.77;1668272;84;26484;-79
2022/05/21 03:06:36;;;;;;;24.85;20.92;;;;;;;16.46;83.46;99703.44;1680450;84;25861;-78
2022/05/21 03:11:49;;;;;;;25.57;21.23;;;;;;;16.48;83.50;99691.84;1670580;84;25986;-79
2022/05/21 03:14:16;;;;;;;23.90;20.92;;;;;;;16.49;83.92;99691.29;1685683;84;25822;-79
2022/05/21 03:16:42;;;;;;;24.45;20.40;;;;;;;16.47;84.09;99695.60;1675935;84;26645;-79
2022/05/21 03:19:08;;;;;;;21.87;19.50;;;;;;;16.44;84.28;99700.69;1675610;84;25338;-78
2022/05/21 03:21:35;;;;;;;21.12;18.25;;;;;;;16.46;84.32;99710.72;1678886;84;28307;-79
2022/05/21 03:24:01;;;;;;;21.40;19.27;;;;;;;16.47;84.37;99702.88;1675569;84;25245;-79
2022/05/21 03:26:27;;;;;;;21.85;19.48;;;;;;;16.49;84.46;99708.34;1672132;84;25816;-78
2022/05/21 03:28:53;;;;;;;22.58;19.57;;;;;;;16.51;84.68;99712.99;1679422;84;26395;-78
2022/05/21 03:31:21;;;;;;;22.32;19.60;;;;;;;16.53;84.69;99712.77;1672634;84;25796;-79
2022/05/21 03:33:47;;;;;;;22.40;19.32;;;;;;;16.54;84.61;99719.80;1682091;84;27459;-78
2022/05/21 03:36:14;;;;;;;21.65;19.12;;;;;;;16.52;84.88;99734.92;1674841;84;25351;-78
2022/05/21 03:38:41;;;;;;;23.52;21.02;;;;;;;16.48;85.00;99726.16;1672155;84;25920;-79
2022/05/21 03:41:08;;;;;;;25.45;21.17;;;;;;;16.48;85.23;99713.47;1672829;84;26294;-79
2022/05/21 03:43:36;;;;;;;25.72;19.98;;;;;;;16.51;85.51;99735.18;1672706;84;25589;-79
2022/05/21 03:46:04;;;;;;;23.35;20.12;;;;;;;16.48;85.71;99740.50;1676877;84;27712;-80
2022/05/21 03:48:31;;;;;;;26.73;19.98;;;;;;;16.46;85.95;99745.34;1671566;84;26481;-78
2022/05/21 03:50:57;;;;;;;26.35;22.85;;;;;;;16.43;85.95;99733.66;1668800;84;25880;-79
2022/05/21 03:53:24;;;;;;;27.10;22.58;;;;;;;16.45;86.48;99737.45;1675870;84;26587;-79
2022/05/21 03:55:51;;;;;;;26.30;23.20;;;;;;;16.47;86.41;99732.62;1674750;84;25973;-79
2022/05/21 03:58:17;;;;;;;27.73;22.73;;;;;;;16.48;86.84;99729.69;1672565;84;27467;-79
2022/05/21 04:00:43;;;;;;;28.07;24.05;;;;;;;16.45;86.88;99727.47;1672687;84;25746;-79
2022/05/21 04:03:09;;;;;;;27.82;23.40;;;;;;;16.44;86.97;99729.08;1678961;84;25838;-81
2022/05/21 04:05:37;;;;;;;28.73;23.90;;;;;;;16.44;87.17;99727.72;1676125;84;26591;-80
2022/05/21 04:08:04;;;;;;;32.60;24.02;;;;;;;16.40;87.63;99725.23;1678567;84;25900;-79
2022/05/21 04:10:30;;;;;;;27.20;24.32;;;;;;;16.36;87.68;99730.84;1677801;84;28561;-78
2022/05/21 04:12:56;;;;;;;28.92;24.75;;;;;;;16.31;88.28;99731.57;1673881;84;25994;-79
2022/05/21 04:15:23;;;;;;;29.65;24.55;;;;;;;16.27;88.14;99731.78;1671360;84;25897;-79
2022/05/21 04:17:51;;;;;;;27.10;23.45;;;;;;;16.25;88.16;99731.20;1679011;84;25945;-78
2022/05/21 04:20:18;;;;;;;30.43;24.47;;;;;;;16.28;88.66;99732.57;1672580;84;25894;-79
2022/05/21 04:22:44;;;;;;;30.60;25.82;;;;;;;16.28;88.76;99727.99;1678053;84;28291;-79
2022/05/21 04:25:11;;;;;;;27.98;24.82;;;;;;;16.31;89.14;99728.05;1674330;84;26031;-78
2022/05/21 04:27:39;;;;;;;29.37;23.10;;;;;;;16.39;89.50;99726.28;1671789;84;25342;-79
2022/05/21 04:30:11;;;;;;;29.57;24.57;;;;;;;16.43;89.96;99722.84;1675742;84;26566;-80
2022/05/21 04:32:37;;;;;;;31.80;25.52;;;;;;;16.46;90.20;99726.42;1674964;84;25935;-80
2022/05/21 04:35:05;;;;;;;27.77;24.02;;;;;;;16.48;90.04;99712.64;1682977;84;27622;-79
2022/05/21 04:37:32;;;;;;;28.47;24.32;;;;;;;16.47;90.09;99702.36;1670271;84;26283;-80
2022/05/21 04:39:58;;;;;;;26.20;23.35;;;;;;;16.48;90.53;99708.59;1645184;86;25671;-80
2022/05/21 04:42:24;;;;;;;26.55;23.75;;;;;;;16.47;90.07;99710.99;1691095;84;26367;-80
2022/05/21 04:44:50;;;;;;;29.50;22.32;;;;;;;16.46;90.20;99711.55;1674491;84;26271;-80
2022/05/21 04:47:18;;;;;;;25.25;21.52;;;;;;;16.44;90.26;99703.39;1689814;84;27495;-80
2022/05/21 04:49:44;;;;;;;23.70;21.20;;;;;;;16.45;90.60;99703.66;1692592;84;25741;-79
2022/05/21 04:52:10;;;;;;;24.63;21.10;;;;;;;16.45;90.66;99703.66;1681798;84;25844;-81
2022/05/21 04:54:37;;;;;;;27.62;22.22;;;;;;;16.46;91.02;99703.44;1675004;84;26148;-80
2022/05/21 04:57:05;;;;;;;27.17;21.52;;;;;;;16.45;91.20;99707.19;1677765;84;25840;-80
2022/05/21 04:59:31;;;;;;;26.65;20.75;;;;;;;16.43;90.98;99710.67;1676041;84;27499;-80
2022/05/21 05:01:58;;;;;;;26.60;21.57;;;;;;;16.43;91.49;99704.45;1673069;84;26094;-81
2022/05/21 05:04:24;;;;;;;21.02;17.55;;;;;;;16.40;91.44;99716.56;1692792;84;26507;-80
2022/05/21 05:06:51;;;;;;;24.20;19.60;;;;;;;16.40;92.29;99715.77;1683550;84;25897;-80
2022/05/21 05:09:21;;;;;;;21.85;16.97;;;;;;;16.39;92.35;99716.81;1679000;84;25905;-81
2022/05/21 05:11:47;;;;;;;19.23;16.20;;;;;;;16.37;92.95;99721.13;1683822;84;28350;-80
2022/05/21 05:14:13;;;;;;;17.15;15.20;;;;;;;16.35;93.38;99713.80;1680846;84;25780;-80
2022/05/21 05:16:39;;;;;;;18.35;14.70;;;;;;;16.37;94.46;99714.37;1691357;84;26045;-81
2022/05/21 05:19:06;;;;;;;16.60;14.90;;;;;;;16.40;93.96;99710.36;1682340;84;25832;-80
2022/05/21 05:21:32;;;;;;;15.32;13.00;;;;;;;16.41;93.93;99703.34;1690237;84;25911;-80
2022/05/21 05:23:58;;;;;;;15.35;12.43;;;;;;;16.46;94.72;99708.84;1688975;84;27673;-79
2022/05/21 05:26:25;;;;;;;17.15;12.20;;;;;;;16.49;95.24;99705.63;1679958;84;25801;-80
2022/05/21 05:28:51;;;;;;;14.33;12.58;;;;;;;16.52;95.70;99702.48;1691161;84;26345;-79
2022/05/21 05:31:18;;;;;;;16.23;13.00;;;;;;;16.54;96.28;99700.34;1672653;84;25841;-78
2022/05/21 05:33:44;;;;;;;16.85;13.50;;;;;;;16.58;95.61;99702.02;1677701;84;25977;-79
2022/05/21 05:36:10;;;;;;;12.55;11.25;;;;;;;16.60;95.65;99696.65;1683883;84;27456;-77
2022/05/21 05:38:37;;;;;;;13.00;11.70;;;;;;;16.62;96.44;99705.33;1692452;84;26583;-79
2022/05/21 05:41:08;;;;;;;11.57;10.48;;;;;;;16.63;97.34;99700.22;1681620;84;25877;-77
2022/05/21 05:43:35;;;;;;;13.13;10.85;;;;;;;16.63;97.73;99701.58;1677878;84;25913;-78
2022/05/21 05:46:01;;;;;;;13.40;12.00;;;;;;;16.66;97.04;99697.53;1674337;84;25978;-78
2022/05/21 05:48:29;;;;;;;23.57;18.05;;;;;;;16.69;98.65;99697.88;1670248;84;27587;-79
2022/05/21 05:50:59;;;;;;;10.60;9.58;;;;;;;16.72;97.70;99692.51;1656939;85;25831;-78
2022/05/21 05:53:26;;;;;;;11.90;10.63;;;;;;;16.76;99.10;99686.88;1669640;85;26419;-79
2022/05/21 05:55:52;;;;;;;11.28;10.18;;;;;;;16.78;97.89;99691.51;1682910;84;25971;-78
2022/05/21 06:01:07;;;;;;;9.98;8.98;;;;;;;16.82;97.90;99692.12;1680174;84;27521;-78
2022/05/21 06:03:34;;;;;;;10.50;9.50;;;;;;;16.84;98.14;99694.04;1669129;84;26352;-78
2022/05/21 06:06:02;;;;;;;11.18;10.00;;;;;;;16.86;98.95;99698.66;1674429;84;25560;-78
2022/05/21 06:08:28;;;;;;;10.93;9.85;;;;;;;16.87;98.40;99702.20;1676726;84;25846;-78
2022/05/21 06:10:54;;;;;;;14.63;9.50;;;;;;;16.87;99.03;99716.52;1672284;84;25826;-77
2022/05/21 06:13:20;;;;;;;12.78;9.00;;;;;;;16.88;100.00;99718.69;1675582;84;28267;-77
2022/05/21 06:15:47;;;;;;;8.78;7.87;;;;;;;16.88;99.81;99730.34;1683455;84;25944;-77
2022/05/21 06:18:19;;;;;;;8.25;7.33;;;;;;;16.89;99.93;99734.67;1669037;84;25899;-78
2022/05/21 06:20:45;;;;;;;4.85;4.35;;;;;;;16.92;98.88;99752.30;1673157;84;26637;-79
2022/05/21 06:23:12;;;;;;;4.97;4.35;;;;;;;16.89;94.44;99767.13;1690112;84;25970;-77
2022/05/21 06:25:39;;;;;;;6.30;4.08;;;;;;;16.81;93.66;99764.02;1670439;84;26920;-77
2022/05/21 06:28:07;;;;;;;7.08;3.77;;;;;;;16.75;93.06;99777.19;1674486;84;25790;-77
2022/05/21 06:30:36;;;;;;;5.42;3.10;;;;;;;16.69;91.95;99778.17;1676252;84;25889;-78
2022/05/21 06:33:21;;;;;;;3.45;2.65;;;;;;;16.66;91.60;99775.42;1673854;84;25805;-78
2022/05/21 06:35:52;;;;;;;5.90;2.22;;;;;;;16.68;91.38;99790.87;1684345;84;25746;-78
2022/05/21 06:38:18;;;;;;;;;;;;;;;16.83;91.11;99787.58;1679147;84;27478;-78
2022/05/21 06:40:46;;;;;;;2.30;1.95;;;;;;;16.96;89.80;99783.19;1684061;84;25738;-78
2022/05/21 06:43:12;;;;;;;2.55;1.90;;;;;;;17.09;88.70;99784.20;1675398;84;25794;-77
2022/05/21 06:45:41;;;;;;;6.85;2.30;;;;;;;17.16;88.60;99784.02;1688289;84;25938;-78
2022/05/21 06:48:08;;;;;;;3.20;2.27;;;;;;;17.22;87.80;99791.14;1677300;84;26011;-77
2022/05/21 06:50:37;;;;;;;6.35;2.42;;;;;;;17.26;87.18;99800.40;1679489;84;27504;-76
2022/05/21 06:53:04;;;;;;;2.33;1.35;;;;;;;17.30;86.36;99801.56;1682380;84;25837;-79
2022/05/21 06:55:31;;;;;;;2.47;1.40;;;;;;;17.27;82.71;99806.94;1674793;84;25898;-78
2022/05/21 06:57:57;;;;;;;2.90;1.15;;;;;;;17.18;82.05;99808.95;1684335;84;26329;-77
2022/05/21 07:00:24;;;;;;;2.33;1.20;;;;;;;17.04;80.20;99811.73;1675229;84;26032;-78
2022/05/21 07:02:53;;;;;;;3.62;1.10;;;;;;;16.90;79.56;99822.05;1671630;84;27483;-77
2022/05/21 07:08:19;;;;;;;1.70;0.88;;;;;;;16.68;79.66;99827.38;1685870;84;26003;-78
2022/05/21 07:10:48;;;;;;;1.65;1.00;;;;;;;16.60;80.17;99829.14;1672793;84;25868;-77
2022/05/21 07:13:19;;;;;;;2.50;1.10;;;;;;;16.54;79.34;99833.34;1681026;84;26055;-77
2022/05/21 07:15:49;;;;;;;9.40;1.37;;;;;;;16.50;79.16;99830.33;1679895;84;27635;-77
2022/05/21 07:18:17;;;;;;;1.93;0.97;;;;;;;16.46;79.02;99851.30;1691308;84;25964;-78
2022/05/21 07:20:45;;;;;;;1.52;1.02;;;;;;;16.43;79.55;99838.25;1674221;84;25786;-76
2022/05/21 07:23:11;;;;;;;2.22;1.00;;;;;;;16.38;79.26;99838.17;1687645;84;25771;-77
2022/05/21 07:25:40;;;;;;;6.40;1.10;;;;;;;16.36;78.37;99854.61;1675675;84;26399;-79
2022/05/21 07:28:08;;;;;;;4.00;0.90;;;;;;;16.35;78.03;99853.52;1664568;84;27488;-78
2022/05/21 07:30:35;;;;;;;1.15;1.00;;;;;;;16.33;77.83;99856.99;1679925;84;26029;-77
2022/05/21 07:33:01;;;;;;;3.22;1.10;;;;;;;16.32;78.32;99862.09;1680889;84;25794;-78
2022/05/21 07:35:28;;;;;;;7.03;1.30;;;;;;;16.32;77.34;99862.09;1680618;84;26614;-78
2022/05/21 07:37:54;;;;;;;1.57;1.07;;;;;;;16.32;76.76;99872.91;1685136;84;25900;-77
2022/05/21 07:40:27;;;;;;;3.02;1.50;;;;;;;16.28;75.24;99872.58;1675136;84;27475;-78
2022/05/21 07:42:52;;;;;;;5.22;1.22;;;;;;;16.24;75.75;99874.13;1677005;84;25852;-78
2022/05/21 07:45:20;;;;;;;5.70;1.70;;;;;;;16.20;75.19;99871.09;1669674;84;25902;-76
2022/05/21 07:47:47;;;;;;;8.50;1.45;;;;;;;16.18;74.72;99879.97;1673148;84;26668;-78
2022/05/21 07:50:14;;;;;;;4.78;1.02;;;;;;;16.13;74.23;99887.14;1647030;84;26531;-78
2022/05/21 07:52:42;;;;;;;3.65;0.75;;;;;;;16.13;75.03;99896.08;1673478;84;27519;-78
2022/05/21 07:55:10;;;;;;;2.12;1.10;;;;;;;16.14;75.12;99910.41;1685577;84;26519;-78
2022/05/21 07:57:36;;;;;;;7.42;1.20;;;;;;;16.11;73.74;99909.52;1680488;84;26357;-77
2022/05/21 08:00:08;;;;;;;2.60;1.40;;;;;;;16.07;74.37;99907.84;1680397;84;25890;-77
2022/05/21 08:02:41;;;;;;;9.43;1.27;;;;;;;16.06;74.26;99907.53;1684049;84;26086;-78
2022/05/21 08:05:08;;;;;;;5.00;1.00;;;;;;;16.06;74.32;99921.05;1677662;84;28318;-77
2022/05/21 08:07:34;;;;;;;4.60;1.00;;;;;;;16.10;72.80;99925.46;1686318;84;25931;-77
2022/05/21 08:10:00;;;;;;;2.15;0.75;;;;;;;16.11;72.74;99923.86;1686385;84;25906;-77
2022/05/21 08:12:26;;;;;;;0.70;0.70;;;;;;;16.09;73.28;99922.45;1676249;84;26694;-78
2022/05/21 08:14:53;;;;;;;6.78;0.90;;;;;;;16.07;72.58;99937.56;1673904;84;25933;-77
2022/05/21 08:17:19;;;;;;;4.20;0.90;;;;;;;16.06;72.38;99939.13;1680458;84;27472;-77
2022/05/21 08:19:45;;;;;;;5.12;1.00;;;;;;;16.12;73.06;99944.40;1691926;84;26522;-77
2022/05/21 08:27:41;;;;;;;4.60;0.93;;;;;;;16.18;70.71;99948.88;1671515;84;25932;-78
2022/05/21 08:30:08;;;;;;;5.65;1.20;;;;;;;16.17;70.77;99966.13;1676718;84;27620;-78
2022/05/21 08:32:35;;;;;;;4.00;1.00;;;;;;;16.19;71.26;99965.89;1680106;84;25670;-79
2022/05/21 08:35:02;;;;;;;4.50;0.90;;;;;;;16.25;70.83;99949.27;1692189;84;26389;-77
2022/05/21 08:37:30;;;;;;;4.75;0.70;;;;;;;16.35;68.63;99949.47;1682632;84;25762;-79
2022/05/21 08:39:56;;;;;;;2.75;0.60;;;;;;;16.56;69.73;99952.36;1682993;84;25909;-77
2022/05/21 08:42:37;;;;;;;0.68;0.40;;;;;;;16.73;67.35;99955.94;1680076;84;27969;-78
2022/05/21 08:45:26;;;;;;;1.67;0.65;;;;;;;16.80;65.08;99947.15;1680200;84;25925;-78
2022/05/21 08:48:03;;;;;;;1.35;0.60;;;;;;;16.88;66.53;99958.92;1675651;84;25746;-78
2022/05/21 08:50:34;;;;;;;5.10;0.65;;;;;;;16.85;65.15;99957.25;1680284;84;26627;-78
2022/05/21 08:53:16;;;;;;;4.17;0.70;;;;;;;16.79;63.87;99963.59;1692322;84;25682;-78
2022/05/21 08:55:50;;;;;;;5.30;1.15;;;;;;;16.73;65.46;99968.63;1680441;84;27532;-78
2022/05/21 08:58:31;;;;;;;4.15;1.25;;;;;;;16.70;66.24;99979.95;1680171;84;26608;-77
2022/05/21 09:00:58;;;;;;;2.55;1.02;;;;;;;16.64;65.89;99968.20;1683835;84;25905;-77
2022/05/21 09:03:26;;;;;;;2.80;0.85;;;;;;;16.58;66.56;99973.22;1688994;84;25997;-78
2022/05/21 09:06:19;;;;;;;3.40;0.80;;;;;;;16.51;66.09;99969.03;1675534;84;25804;-77
2022/05/21 09:08:53;;;;;;;4.33;0.90;;;;;;;16.48;66.63;99982.98;1683429;84;27647;-78
2022/05/21 09:11:33;;;;;;;3.42;1.00;;;;;;;16.47;66.62;99992.14;1678481;84;26593;-77
2022/05/21 09:14:18;;;;;;;2.42;0.78;;;;;;;16.47;65.99;99984.03;1683184;84;25740;-78
2022/05/21 09:16:57;;;;;;;1.35;1.10;;;;;;;16.45;66.22;99978.05;1674409;84;25985;-77
2022/05/21 09:19:36;;;;;;;1.82;0.70;;;;;;;16.43;66.52;99980.16;1677887;84;25945;-76
2022/05/21 09:22:07;;;;;;;3.05;1.12;;;;;;;16.41;66.57;99990.40;1682169;84;27548;-77
2022/05/21 09:24:44;;;;;;;2.45;1.50;;;;;;;16.38;66.24;99984.14;1668729;84;26446;-78
2022/05/21 09:27:28;;;;;;;8.25;1.65;;;;;;;16.33;66.54;99978.09;1667519;84;26553;-78
2022/05/21 09:30:15;;;;;;;3.35;1.47;;;;;;;16.30;66.34;99989.89;1676989;84;26638;-79
2022/05/21 09:32:46;;;;;;;7.90;1.30;;;;;;;16.28;66.58;100000.95;1679968;84;25783;-77
2022/05/21 09:35:17;;;;;;;1.15;1.00;;;;;;;16.29;66.16;100000.42;1690426;84;27521;-77
2022/05/21 09:37:44;;;;;;;;;;;;;;;16.26;64.72;99992.26;1683021;84;25789;-77
2022/05/21 09:40:25;;;;;;;5.92;1.57;;;;;;;16.24;65.16;100009.24;1670259;84;25336;-77
2022/05/21 09:45:39;;;;;;;6.65;1.30;;;;;;;16.17;65.69;100010.72;1679221;84;25995;-77
2022/05/21 09:48:10;;;;;;;2.98;1.17;;;;;;;16.17;65.21;100031.51;1682077;84;28015;-78
2022/05/21 09:50:48;;;;;;;6.28;1.10;;;;;;;16.15;64.50;100022.30;1680363;84;25878;-79
2022/05/21 09:53:38;;;;;;;5.00;1.62;;;;;;;16.19;65.22;100041.55;1669415;84;25320;-77
2022/05/21 09:56:25;;;;;;;11.87;3.40;;;;;;;16.16;64.54;100033.94;1664992;84;25941;-78
2022/05/21 09:59:09;;;;;;;5.10;1.20;;;;;;;16.12;65.03;100037.62;1671984;84;26459;-78
2022/05/21 10:01:45;;;;;;;5.10;1.00;;;;;;;16.11;64.71;100045.97;1670997;84;27639;-78
2022/05/21 10:04:29;;;;;;;2.15;1.00;;;;;;;16.10;64.87;100049.75;1664439;84;25953;-79
2022/05/21 10:07:12;;;;;;;10.03;1.30;;;;;;;16.06;64.89;100062.05;1674427;84;25967;-78
2022/05/21 10:12:37;;;;;;;2.40;0.90;;;;;;;15.97;65.65;100071.03;1688415;84;26411;-78
2022/05/21 10:15:11;;;;;;;3.08;0.90;;;;;;;15.93;65.33;100059.06;1677551;84;27637;-78
2022/05/21 10:17:43;;;;;;;1.50;0.88;;;;;;;15.90;64.84;100060.89;1682087;84;25844;-78
2022/05/21 10:20:28;;;;;;;;;;;;;;;15.88;65.57;100064.88;1694655;84;26178;-78
2022/05/21 10:23:31;;;;;;;3.60;0.85;;;;;;;15.86;64.79;100066.48;1664858;84;26599;-78
2022/05/21 10:26:43;;;;;;;6.90;1.05;;;;;;;15.86;64.92;100079.98;1682010;84;25721;-77
2022/05/21 10:29:31;;;;;;;1.67;1.05;;;;;;;15.87;64.12;100083.48;1652941;84;27461;-78
2022/05/21 10:32:23;;;;;;;2.45;0.93;;;;;;;15.88;64.71;100079.73;1672247;84;25802;-78
2022/05/21 10:35:10;;;;;;;0.90;0.70;;;;;;;15.88;65.03;100093.24;1651046;84;25783;-77
2022/05/21 10:37:57;;;;;;;2.98;0.80;;;;;;;15.91;65.34;100085.48;1685654;84;26536;-78
2022/05/21 10:41:00;;;;;;;1.80;0.95;;;;;;;15.94;65.15;100092.30;1678914;84;25740;-77
2022/05/21 10:44:03;;;;;;;8.35;1.82;;;;;;;15.93;64.95;100102.83;1679686;84;27473;-77
2022/05/21 10:47:03;;;;;;;2.62;0.98;;;;;;;15.90;64.82;100114.92;1666825;84;26600;-78
2022/05/21 10:50:04;;;;;;;3.40;1.10;;;;;;;15.91;64.53;100115.20;1689123;84;25781;-77
2022/05/21 10:52:58;;;;;;;5.70;1.20;;;;;;;15.97;64.77;100115.61;1686709;84;26760;-78
2022/05/21 10:55:48;;;;;;;3.17;1.15;;;;;;;16.07;64.88;100121.28;1673580;84;26019;-77
2022/05/21 10:58:41;;;;;;;6.45;1.55;;;;;;;16.16;64.79;100127.16;1686449;84;27475;-77
2022/05/21 11:01:40;;;;;;;1.20;0.93;;;;;;;16.19;64.57;100130.73;1676366;84;25859;-77
2022/05/21 11:04:24;;;;;;;2.77;0.80;;;;;;;16.19;64.57;100121.27;1664254;84;25875;-77
2022/05/21 11:07:08;;;;;;;2.25;1.10;;;;;;;16.23;64.51;100125.97;1683250;84;25979;-78
2022/05/21 11:09:55;;;;;;;3.45;0.90;;;;;;;16.36;64.09;100134.38;1678784;84;25987;-78
2022/05/21 11:12:45;;;;;;;3.60;0.80;;;;;;;16.43;65.00;100140.49;1689671;84;27444;-77
2022/05/21 11:15:41;;;;;;;3.02;1.02;;;;;;;16.42;63.42;100136.16;1651970;84;25935;-78
2022/05/21 11:18:19;;;;;;;4.25;0.88;;;;;;;16.43;64.15;100155.87;1670138;84;25879;-77
2022/05/21 11:21:02;;;;;;;4.45;1.15;;;;;;;16.46;63.51;100140.03;1665611;84;25975;-78
2022/05/21 11:23:39;;;;;;;2.20;0.78;;;;;;;16.57;63.71;100143.81;1674442;84;26613;-77
2022/05/21 11:26:22;;;;;;;1.00;0.90;;;;;;;16.75;63.35;100140.43;1673941;84;27479;-77
2022/05/21 11:28:54;;;;;;;8.43;1.27;;;;;;;16.98;61.05;100120.61;1692278;84;25817;-77
2022/05/21 11:37:21;;;;;;;5.28;0.90;;;;;;;17.06;58.02;100143.78;1692068;84;25813;-80
2022/05/21 11:39:53;;;;;;;5.17;0.70;;;;;;;17.04;58.28;100148.09;1678443;84;27448;-80
2022/05/21 11:42:23;;;;;;;2.70;0.63;;;;;;;17.01;58.53;100153.13;1673896;84;25722;-79
2022/05/21 11:45:23;;;;;;;8.93;1.10;;;;;;;16.99;58.73;100143.91;1681040;84;25957;-81
2022/05/21 11:48:12;;;;;;;4.45;0.90;;;;;;;16.98;59.37;100163.90;1676131;84;26061;-80
2022/05/21 11:50:38;;;;;;;3.72;1.00;;;;;;;16.89;58.25;100179.67;1689518;84;25959;-81
2022/05/21 11:53:11;;;;;;;2.25;0.75;;;;;;;16.80;58.80;100178.42;1692054;84;28552;-80
2022/05/21 11:56:00;;;;;;;5.58;1.02;;;;;;;16.71;58.19;100139.27;1681472;84;25900;-79
2022/05/21 11:59:02;;;;;;;6.33;0.85;;;;;;;16.60;58.04;100180.66;1679674;84;25847;-78
2022/05/21 12:01:40;;;;;;;4.30;0.70;;;;;;;16.57;58.85;100187.08;1671493;84;34936;-80
2022/05/21 12:04:40;;;;;;;3.75;0.75;;;;;;;16.52;58.96;100194.55;1679338;83;25378;-79
2022/05/21 12:07:06;;;;;;;3.25;1.02;;;;;;;16.50;59.44;100190.42;1680101;84;28271;-79
2022/05/21 12:09:34;;;;;;;4.47;0.70;;;;;;;16.48;59.78;100191.98;1665524;84;25901;-79
2022/05/21 12:12:28;;;;;;;4.75;0.95;;;;;;;16.47;59.98;100205.19;1688028;83;26571;-80
2022/05/21 12:14:58;;;;;;;3.15;1.20;;;;;;;16.42;59.84;100202.39;1675675;84;25844;-79